sensor_id;sensor_type;location;lat;lon;timestamp;pressure;altitude;pressure_sealevel;temperature;humidity
42067;BME280;27734;47.028;28.820;2023-05-19T00:00:14;100594.90;;;18.39;51.01
42067;BME280;27734;47.028;28.820;2023-05-19T00:03:04;100600.20;;;18.37;50.87
42067;BME280;27734;47.028;28.820;2023-05-19T00:05:34;100595.75;;;18.35;51.28
42067;BME280;27734;47.028;28.820;2023-05-19T00:08:08;100601.05;;;18.33;51.72
42067;BME280;27734;47.028;28.820;2023-05-19T00:10:39;100603.69;;;18.30;52.04
42067;BME280;27734;47.028;28.820;2023-05-19T00:13:08;100610.78;;;18.29;52.38
42067;BME280;27734;47.028;28.820;2023-05-19T00:15:37;100605.45;;;18.26;52.23
42067;BME280;27734;47.028;28.820;2023-05-19T00:18:06;100603.67;;;18.25;52.89
42067;BME280;27734;47.028;28.820;2023-05-19T00:20:35;100609.84;;;18.24;53.43
42067;BME280;27734;47.028;28.820;2023-05-19T00:23:05;100609.81;;;18.20;53.98
42067;BME280;27734;47.028;28.820;2023-05-19T00:25:34;100616.89;;;18.18;54.66
42067;BME280;27734;47.028;28.820;2023-05-19T00:28:03;100617.75;;;18.15;54.65
42067;BME280;27734;47.028;28.820;2023-05-19T00:30:31;100619.52;;;18.13;55.06
42067;BME280;27734;47.028;28.820;2023-05-19T00:33:00;100616.85;;;18.11;54.54
42067;BME280;27734;47.028;28.820;2023-05-19T00:35:28;100624.82;;;18.11;54.95
42067;BME280;27734;47.028;28.820;2023-05-19T00:37:59;100619.52;;;18.11;54.40
42067;BME280;27734;47.028;28.820;2023-05-19T00:40:29;100613.31;;;18.09;54.77
42067;BME280;27734;47.028;28.820;2023-05-19T00:42:58;100615.98;;;18.11;55.92
42067;BME280;27734;47.028;28.820;2023-05-19T00:45:27;100617.71;;;18.09;55.53
42067;BME280;27734;47.028;28.820;2023-05-19T00:47:56;100615.95;;;18.08;55.97
42067;BME280;27734;47.028;28.820;2023-05-19T00:50:24;100615.05;;;18.09;55.78
42067;BME280;27734;47.028;28.820;2023-05-19T00:52:54;100614.17;;;18.08;56.35
42067;BME280;27734;47.028;28.820;2023-05-19T00:55:27;100614.17;;;18.07;56.47
42067;BME280;27734;47.028;28.820;2023-05-19T00:57:56;100614.16;;;18.05;56.85
42067;BME280;27734;47.028;28.820;2023-05-19T01:00:25;100624.77;;;18.04;57.00
42067;BME280;27734;47.028;28.820;2023-05-19T01:02:53;100618.55;;;18.00;57.05
42067;BME280;27734;47.028;28.820;2023-05-19T01:05:22;100618.55;;;17.99;57.81
42067;BME280;27734;47.028;28.820;2023-05-19T01:07:51;100623.82;;;17.94;58.00
42067;BME280;27734;47.028;28.820;2023-05-19T01:10:20;100618.52;;;17.94;57.99
42067;BME280;27734;47.028;28.820;2023-05-19T01:12:49;100608.77;;;17.94;58.59
42067;BME280;27734;47.028;28.820;2023-05-19T01:15:18;100615.84;;;17.92;59.00
42067;BME280;27734;47.028;28.820;2023-05-19T01:17:52;100616.70;;;17.91;59.24
42067;BME280;27734;47.028;28.820;2023-05-19T01:20:28;100614.03;;;17.88;59.63
42067;BME280;27734;47.028;28.820;2023-05-19T01:23:22;100621.07;;;17.86;59.71
42067;BME280;27734;47.028;28.820;2023-05-19T01:26:16;100624.59;;;17.85;60.15
42067;BME280;27734;47.028;28.820;2023-05-19T01:29:22;100623.70;;;17.83;59.59
42067;BME280;27734;47.028;28.820;2023-05-19T01:31:58;100628.13;;;17.83;60.56
42067;BME280;27734;47.028;28.820;2023-05-19T01:34:30;100629.00;;;17.82;61.07
42067;BME280;27734;47.028;28.820;2023-05-19T01:37:01;100629.85;;;17.79;60.90
42067;BME280;27734;47.028;28.820;2023-05-19T01:39:30;100631.62;;;17.78;61.60
42067;BME280;27734;47.028;28.820;2023-05-19T01:42:01;100641.38;;;17.79;61.42
42067;BME280;27734;47.028;28.820;2023-05-19T01:44:31;100633.41;;;17.78;61.52
42067;BME280;27734;47.028;28.820;2023-05-19T01:47:01;100644.87;;;17.75;62.24
42067;BME280;27734;47.028;28.820;2023-05-19T01:49:30;100642.20;;;17.74;61.45
42067;BME280;27734;47.028;28.820;2023-05-19T01:51:59;100636.03;;;17.75;61.55
42067;BME280;27734;47.028;28.820;2023-05-19T01:54:28;100642.20;;;17.74;62.52
42067;BME280;27734;47.028;28.820;2023-05-19T01:57:02;100638.62;;;17.69;62.21
42067;BME280;27734;47.028;28.820;2023-05-19T01:59:50;100642.12;;;17.65;62.58
42067;BME280;27734;47.028;28.820;2023-05-19T02:02:28;100633.23;;;17.58;63.14
42067;BME280;27734;47.028;28.820;2023-05-19T02:05:05;100633.18;;;17.53;63.09
42067;BME280;27734;47.028;28.820;2023-05-19T02:07:42;100634.88;;;17.48;63.02
42067;BME280;27734;47.028;28.820;2023-05-19T02:10:16;100637.52;;;17.47;63.45
42067;BME280;27734;47.028;28.820;2023-05-19T02:12:47;100638.38;;;17.42;63.96
42067;BME280;27734;47.028;28.820;2023-05-19T02:15:23;100651.61;;;17.39;63.87
42067;BME280;27734;47.028;28.820;2023-05-19T02:17:55;100653.36;;;17.39;64.06
42067;BME280;27734;47.028;28.820;2023-05-19T02:20:24;100656.89;;;17.36;64.37
42067;BME280;27734;47.028;28.820;2023-05-19T02:22:53;100655.08;;;17.34;64.73
42067;BME280;27734;47.028;28.820;2023-05-19T02:25:22;100650.64;;;17.30;64.96
42067;BME280;27734;47.028;28.820;2023-05-19T02:27:51;100663.83;;;17.23;64.98
42067;BME280;27734;47.028;28.820;2023-05-19T02:30:19;100667.34;;;17.22;65.22
42067;BME280;27734;47.028;28.820;2023-05-19T02:32:48;100664.66;;;17.19;65.21
42067;BME280;27734;47.028;28.820;2023-05-19T02:35:17;100666.43;;;17.19;65.13
42067;BME280;27734;47.028;28.820;2023-05-19T02:37:46;100676.11;;;17.17;65.19
42067;BME280;27734;47.028;28.820;2023-05-19T02:40:15;100678.72;;;17.14;66.30
42067;BME280;27734;47.028;28.820;2023-05-19T02:42:45;100676.95;;;17.11;65.89
42067;BME280;27734;47.028;28.820;2023-05-19T02:45:13;100683.97;;;17.09;66.35
42067;BME280;27734;47.028;28.820;2023-05-19T02:47:42;100683.07;;;17.07;67.56
42067;BME280;27734;47.028;28.820;2023-05-19T02:50:11;100684.83;;;17.05;66.69
42067;BME280;27734;47.028;28.820;2023-05-19T02:52:39;100692.78;;;17.05;67.16
42067;BME280;27734;47.028;28.820;2023-05-19T02:55:08;100706.03;;;17.05;66.39
42067;BME280;27734;47.028;28.820;2023-05-19T02:57:43;100701.63;;;17.07;67.14
42067;BME280;27734;47.028;28.820;2023-05-19T03:00:13;100708.77;;;17.11;67.71
42067;BME280;27734;47.028;28.820;2023-05-19T03:02:42;100701.67;;;17.10;67.12
42067;BME280;27734;47.028;28.820;2023-05-19T03:05:11;100700.83;;;17.13;66.62
42067;BME280;27734;47.028;28.820;2023-05-19T03:07:41;100700.86;;;17.16;67.94
42067;BME280;27734;47.028;28.820;2023-05-19T03:10:10;100701.73;;;17.15;68.61
42067;BME280;27734;47.028;28.820;2023-05-19T03:12:38;100709.66;;;17.13;68.18
42067;BME280;27734;47.028;28.820;2023-05-19T03:15:09;100702.63;;;17.17;67.85
42067;BME280;27734;47.028;28.820;2023-05-19T03:17:39;100706.22;;;17.20;68.01
42067;BME280;27734;47.028;28.820;2023-05-19T03:20:10;100700.05;;;17.23;68.44
42067;BME280;27734;47.028;28.820;2023-05-19T03:22:38;100704.48;;;17.24;68.49
42067;BME280;27734;47.028;28.820;2023-05-19T03:25:08;100703.62;;;17.25;69.18
42067;BME280;27734;47.028;28.820;2023-05-19T03:27:37;100705.34;;;17.23;69.00
42067;BME280;27734;47.028;28.820;2023-05-19T03:30:11;100698.28;;;17.22;69.08
42067;BME280;27734;47.028;28.820;2023-05-19T03:32:51;100694.72;;;17.21;69.89
42067;BME280;27734;47.028;28.820;2023-05-19T03:35:20;100707.08;;;17.19;68.92
42067;BME280;27734;47.028;28.820;2023-05-19T03:37:49;100716.83;;;17.20;69.29
42067;BME280;27734;47.028;28.820;2023-05-19T03:40:17;100714.18;;;17.20;69.65
42067;BME280;27734;47.028;28.820;2023-05-19T03:42:46;100715.06;;;17.21;69.20
42067;BME280;27734;47.028;28.820;2023-05-19T03:45:14;100718.63;;;17.24;69.12
42067;BME280;27734;47.028;28.820;2023-05-19T03:47:44;100718.63;;;17.24;69.75
42067;BME280;27734;47.028;28.820;2023-05-19T03:50:46;100726.56;;;17.23;69.37
42067;BME280;27734;47.028;28.820;2023-05-19T03:53:20;100723.97;;;17.28;69.30
42067;BME280;27734;47.028;28.820;2023-05-19T03:55:49;100737.28;;;17.32;69.79
42067;BME280;27734;47.028;28.820;2023-05-19T03:58:17;100732.85;;;17.30;69.71
42067;BME280;27734;47.028;28.820;2023-05-19T04:00:46;100731.06;;;17.29;70.74
42067;BME280;27734;47.028;28.820;2023-05-19T04:03:15;100733.71;;;17.29;69.91
42067;BME280;27734;47.028;28.820;2023-05-19T04:05:43;100723.97;;;17.28;69.82
42067;BME280;27734;47.028;28.820;2023-05-19T04:08:12;100737.27;;;17.31;69.87
42067;BME280;27734;47.028;28.820;2023-05-19T04:10:41;100737.28;;;17.32;70.26
42067;BME280;27734;47.028;28.820;2023-05-19T04:13:10;100733.77;;;17.33;70.08
42067;BME280;27734;47.028;28.820;2023-05-19T04:15:38;100737.30;;;17.34;70.06
42067;BME280;27734;47.028;28.820;2023-05-19T04:18:08;100727.63;;;17.36;70.50
42067;BME280;27734;47.028;28.820;2023-05-19T04:20:39;100724.07;;;17.37;70.29
42067;BME280;27734;47.028;28.820;2023-05-19T04:23:07;100734.79;;;17.46;70.09
42067;BME280;27734;47.028;28.820;2023-05-19T04:25:36;100732.17;;;17.49;70.60
42067;BME280;27734;47.028;28.820;2023-05-19T04:28:05;100742.94;;;17.63;69.60
42067;BME280;27734;47.028;28.820;2023-05-19T04:30:34;100743.02;;;17.71;69.87
42067;BME280;27734;47.028;28.820;2023-05-19T04:33:04;100747.53;;;17.78;70.21
42067;BME280;27734;47.028;28.820;2023-05-19T04:35:32;100747.61;;;17.86;69.71
42067;BME280;27734;47.028;28.820;2023-05-19T04:38:01;100748.55;;;17.89;69.92
42067;BME280;27734;47.028;28.820;2023-05-19T04:40:32;100746.80;;;17.93;69.64
42067;BME280;27734;47.028;28.820;2023-05-19T04:43:00;100739.72;;;17.93;69.73
42067;BME280;27734;47.028;28.820;2023-05-19T04:45:30;100754.81;;;17.98;69.69
42067;BME280;27734;47.028;28.820;2023-05-19T04:48:01;100753.05;;;18.00;69.63
42067;BME280;27734;47.028;28.820;2023-05-19T04:50:31;100758.39;;;18.03;69.74
42067;BME280;27734;47.028;28.820;2023-05-19T04:53:00;100762.89;;;18.10;69.66
42067;BME280;27734;47.028;28.820;2023-05-19T04:55:29;100754.09;;;18.14;69.44
42067;BME280;27734;47.028;28.820;2023-05-19T04:57:58;100756.80;;;18.20;69.24
42067;BME280;27734;47.028;28.820;2023-05-19T05:00:27;100761.25;;;18.26;69.12
42067;BME280;27734;47.028;28.820;2023-05-19T05:03:00;100768.39;;;18.31;69.02
42067;BME280;27734;47.028;28.820;2023-05-19T05:05:33;100763.98;;;18.35;68.82
42067;BME280;27734;47.028;28.820;2023-05-19T05:08:02;100764.95;;;18.43;68.75
42067;BME280;27734;47.028;28.820;2023-05-19T05:10:34;100765.87;;;18.48;68.50
42067;BME280;27734;47.028;28.820;2023-05-19T05:13:03;100760.61;;;18.56;68.49
42067;BME280;27734;47.028;28.820;2023-05-19T05:15:33;100769.53;;;18.66;68.43
42067;BME280;27734;47.028;28.820;2023-05-19T05:18:03;100765.11;;;18.68;68.23
42067;BME280;27734;47.028;28.820;2023-05-19T05:20:34;100771.33;;;18.68;68.36
42067;BME280;27734;47.028;28.820;2023-05-19T05:23:04;100763.36;;;18.68;67.97
42067;BME280;27734;47.028;28.820;2023-05-19T05:25:34;100766.02;;;18.70;67.50
42067;BME280;27734;47.028;28.820;2023-05-19T05:28:03;100771.34;;;18.70;68.14
42067;BME280;27734;47.028;28.820;2023-05-19T05:30:34;100779.34;;;18.75;68.06
42067;BME280;27734;47.028;28.820;2023-05-19T05:33:05;100779.41;;;18.84;67.78
42067;BME280;27734;47.028;28.820;2023-05-19T05:35:35;100783.91;;;18.93;67.52
42067;BME280;27734;47.028;28.820;2023-05-19T05:38:05;100783.09;;;19.04;67.61
42067;BME280;27734;47.028;28.820;2023-05-19T05:40:34;100779.59;;;19.16;66.99
42067;BME280;27734;47.028;28.820;2023-05-19T05:43:06;100776.97;;;19.24;67.08
42067;BME280;27734;47.028;28.820;2023-05-19T05:45:39;100779.66;;;19.29;66.43
42067;BME280;27734;47.028;28.820;2023-05-19T05:48:11;100776.16;;;19.37;66.62
42067;BME280;27734;47.028;28.820;2023-05-19T05:50:40;100790.38;;;19.49;66.98
42067;BME280;27734;47.028;28.820;2023-05-19T05:53:18;100789.55;;;19.64;66.55
42067;BME280;27734;47.028;28.820;2023-05-19T05:55:51;100787.80;;;19.72;65.83
42067;BME280;27734;47.028;28.820;2023-05-19T05:58:21;100785.13;;;19.70;65.32
42067;BME280;27734;47.028;28.820;2023-05-19T06:00:51;100784.24;;;19.67;65.92
42067;BME280;27734;47.028;28.820;2023-05-19T06:03:24;100784.25;;;19.68;65.54
42067;BME280;27734;47.028;28.820;2023-05-19T06:05:54;100781.58;;;19.68;65.33
42067;BME280;27734;47.028;28.820;2023-05-19T06:08:23;100781.65;;;19.81;65.37
42067;BME280;27734;47.028;28.820;2023-05-19T06:10:54;100789.65;;;19.85;65.42
42067;BME280;27734;47.028;28.820;2023-05-19T06:13:23;100781.67;;;19.90;65.12
42067;BME280;27734;47.028;28.820;2023-05-19T06:15:53;100790.55;;;19.98;64.63
42067;BME280;27734;47.028;28.820;2023-05-19T06:18:30;100788.77;;;20.02;64.24
42067;BME280;27734;47.028;28.820;2023-05-19T06:20:59;100793.22;;;20.01;63.96
42067;BME280;27734;47.028;28.820;2023-05-19T06:23:32;100791.44;;;20.06;64.73
42067;BME280;27734;47.028;28.820;2023-05-19T06:26:08;100790.58;;;20.14;64.80
42067;BME280;27734;47.028;28.820;2023-05-19T06:28:41;100791.45;;;20.16;64.32
42067;BME280;27734;47.028;28.820;2023-05-19T06:31:12;100787.92;;;20.24;63.87
42067;BME280;27734;47.028;28.820;2023-05-19T06:33:47;100797.67;;;20.36;64.09
42067;BME280;27734;47.028;28.820;2023-05-19T06:36:16;100803.92;;;20.52;63.26
42067;BME280;27734;47.028;28.820;2023-05-19T06:38:45;100803.03;;;20.67;62.65
42067;BME280;27734;47.028;28.820;2023-05-19T06:41:14;100805.69;;;20.76;62.06
42067;BME280;27734;47.028;28.820;2023-05-19T06:43:45;100802.13;;;20.88;62.75
42067;BME280;27734;47.028;28.820;2023-05-19T06:46:15;100791.42;;;21.04;61.96
42067;BME280;27734;47.028;28.820;2023-05-19T06:48:44;100796.69;;;21.17;62.28
42067;BME280;27734;47.028;28.820;2023-05-19T06:51:13;100810.91;;;21.29;61.65
42067;BME280;27734;47.028;28.820;2023-05-19T06:53:49;100800.19;;;21.41;61.92
42067;BME280;27734;47.028;28.820;2023-05-19T06:56:21;100800.17;;;21.52;61.14
42067;BME280;27734;47.028;28.820;2023-05-19T07:01:42;100807.20;;;21.68;60.84
42067;BME280;27734;47.028;28.820;2023-05-19T07:04:13;100802.73;;;21.69;59.63
42067;BME280;27734;47.028;28.820;2023-05-19T07:06:42;100802.72;;;21.72;59.92
42067;BME280;27734;47.028;28.820;2023-05-19T07:09:11;100794.67;;;21.77;59.85
42067;BME280;27734;47.028;28.820;2023-05-19T07:11:42;100797.30;;;21.86;59.70
42067;BME280;27734;47.028;28.820;2023-05-19T07:14:12;100793.66;;;22.01;58.87
42067;BME280;27734;47.028;28.820;2023-05-19T07:16:42;100800.62;;;22.20;59.08
42067;BME280;27734;47.028;28.820;2023-05-19T07:19:13;100801.45;;;22.36;58.27
42067;BME280;27734;47.028;28.820;2023-05-19T07:21:45;100804.94;;;22.44;57.94
42067;BME280;27734;47.028;28.820;2023-05-19T07:24:18;100795.89;;;22.61;58.31
42067;BME280;27734;47.028;28.820;2023-05-19T07:26:50;100790.28;;;22.84;58.18
42067;BME280;27734;47.028;28.820;2023-05-19T07:29:19;100801.66;;;23.08;57.15
42067;BME280;27734;47.028;28.820;2023-05-19T07:31:53;100788.08;;;23.25;56.77
42067;BME280;27734;47.028;28.820;2023-05-19T07:34:25;100781.66;;;23.40;56.37
42067;BME280;27734;47.028;28.820;2023-05-19T07:36:55;100789.23;;;23.75;55.96
42067;BME280;27734;47.028;28.820;2023-05-19T07:39:25;100792.57;;;23.93;54.33
42067;BME280;27734;47.028;28.820;2023-05-19T07:41:56;100779.77;;;24.12;54.43
42067;BME280;27734;47.028;28.820;2023-05-19T07:44:30;100793.78;;;24.29;54.11
42067;BME280;27734;47.028;28.820;2023-05-19T07:47:02;100790.68;;;24.54;53.38
42067;BME280;27734;47.028;28.820;2023-05-19T07:49:31;100782.37;;;24.71;52.53
42067;BME280;27734;47.028;28.820;2023-05-19T07:51:59;100786.52;;;24.89;51.77
42067;BME280;27734;47.028;28.820;2023-05-19T07:54:28;100784.33;;;25.09;51.20
42067;BME280;27734;47.028;28.820;2023-05-19T07:56:57;100787.55;;;25.27;51.34
42067;BME280;27734;47.028;28.820;2023-05-19T07:59:26;100788.39;;;25.30;50.45
42067;BME280;27734;47.028;28.820;2023-05-19T08:01:58;100776.58;;;25.39;50.52
42067;BME280;27734;47.028;28.820;2023-05-19T08:04:28;100776.12;;;25.61;50.44
42067;BME280;27734;47.028;28.820;2023-05-19T08:07:04;100774.00;;;25.75;49.94
42067;BME280;27734;47.028;28.820;2023-05-19T08:09:34;100778.32;;;25.82;49.41
42067;BME280;27734;47.028;28.820;2023-05-19T08:12:08;100777.31;;;25.87;48.76
42067;BME280;27734;47.028;28.820;2023-05-19T08:14:42;100780.69;;;25.96;48.79
42067;BME280;27734;47.028;28.820;2023-05-19T08:17:13;100778.61;;;26.09;47.65
42067;BME280;27734;47.028;28.820;2023-05-19T08:19:50;100773.23;;;26.09;48.08
42067;BME280;27734;47.028;28.820;2023-05-19T08:22:22;100776.54;;;26.21;47.07
42067;BME280;27734;47.028;28.820;2023-05-19T08:24:54;100772.03;;;26.23;46.32
42067;BME280;27734;47.028;28.820;2023-05-19T08:27:47;100778.31;;;26.22;45.84
42067;BME280;27734;47.028;28.820;2023-05-19T08:30:26;100768.47;;;26.21;45.96
42067;BME280;27734;47.028;28.820;2023-05-19T08:33:02;100765.66;;;26.25;45.86
42067;BME280;27734;47.028;28.820;2023-05-19T08:35:39;100767.22;;;26.35;45.63
42067;BME280;27734;47.028;28.820;2023-05-19T08:38:10;100761.64;;;26.43;45.50
42067;BME280;27734;47.028;28.820;2023-05-19T08:40:41;100774.81;;;26.54;45.11
42067;BME280;27734;47.028;28.820;2023-05-19T08:43:31;100762.15;;;26.58;45.48
42067;BME280;27734;47.028;28.820;2023-05-19T08:46:06;100767.41;;;26.62;44.74
42067;BME280;27734;47.028;28.820;2023-05-19T08:48:41;100764.67;;;26.64;44.85
42067;BME280;27734;47.028;28.820;2023-05-19T08:51:22;100757.52;;;26.63;44.09
42067;BME280;27734;47.028;28.820;2023-05-19T08:54:03;100760.94;;;26.71;44.27
42067;BME280;27734;47.028;28.820;2023-05-19T08:56:39;100763.59;;;26.72;43.80
42067;BME280;27734;47.028;28.820;2023-05-19T08:59:12;100770.72;;;26.73;43.16
42067;BME280;27734;47.028;28.820;2023-05-19T09:01:49;100746.41;;;26.77;43.29
42067;BME280;27734;47.028;28.820;2023-05-19T09:04:50;100750.80;;;26.81;42.18
42067;BME280;27734;47.028;28.820;2023-05-19T09:07:20;100740.81;;;26.84;41.95
42067;BME280;27734;47.028;28.820;2023-05-19T09:09:54;100743.67;;;26.78;40.88
42067;BME280;27734;47.028;28.820;2023-05-19T09:12:31;100735.47;;;26.83;40.86
42067;BME280;27734;47.028;28.820;2023-05-19T09:15:18;100733.53;;;26.88;41.17
42067;BME280;27734;47.028;28.820;2023-05-19T09:17:54;100732.39;;;26.97;40.18
42067;BME280;27734;47.028;28.820;2023-05-19T09:20:34;100738.70;;;26.96;40.16
42067;BME280;27734;47.028;28.820;2023-05-19T09:23:04;100729.05;;;26.88;40.35
42067;BME280;27734;47.028;28.820;2023-05-19T09:25:33;100734.60;;;26.82;40.36
42067;BME280;27734;47.028;28.820;2023-05-19T09:28:08;100726.36;;;26.88;39.97
42067;BME280;27734;47.028;28.820;2023-05-19T09:30:37;100725.45;;;26.88;39.80
42067;BME280;27734;47.028;28.820;2023-05-19T09:33:07;100710.94;;;26.94;39.83
42067;BME280;27734;47.028;28.820;2023-05-19T09:35:39;100707.71;;;27.12;38.91
42067;BME280;27734;47.028;28.820;2023-05-19T09:38:08;100703.58;;;27.32;38.99
42067;BME280;27734;47.028;28.820;2023-05-19T09:40:50;100704.95;;;27.45;38.67
42067;BME280;27734;47.028;28.820;2023-05-19T09:43:24;100706.81;;;27.43;38.67
42067;BME280;27734;47.028;28.820;2023-05-19T09:46:01;100706.81;;;27.43;39.33
42067;BME280;27734;47.028;28.820;2023-05-19T09:48:35;100714.27;;;27.35;38.76
42067;BME280;27734;47.028;28.820;2023-05-19T09:51:09;100710.09;;;27.23;38.69
42067;BME280;27734;47.028;28.820;2023-05-19T09:53:41;100705.94;;;27.11;39.15
42067;BME280;27734;47.028;28.820;2023-05-19T09:56:23;100712.54;;;27.01;39.38
42067;BME280;27734;47.028;28.820;2023-05-19T09:59:00;100702.95;;;26.90;38.82
42067;BME280;27734;47.028;28.820;2023-05-19T10:01:44;100708.30;;;26.92;38.80
42067;BME280;27734;47.028;28.820;2023-05-19T10:04:28;100711.86;;;26.93;39.17
42067;BME280;27734;47.028;28.820;2023-05-19T10:07:24;100699.91;;;27.03;39.01
42067;BME280;27734;47.028;28.820;2023-05-19T10:10:02;100695.52;;;26.99;38.58
42067;BME280;27734;47.028;28.820;2023-05-19T10:12:37;100701.09;;;26.93;38.95
42067;BME280;27734;47.028;28.820;2023-05-19T10:15:16;100694.96;;;26.87;39.30
42067;BME280;27734;47.028;28.820;2023-05-19T10:17:48;100697.74;;;26.84;38.84
42067;BME280;27734;47.028;28.820;2023-05-19T10:20:26;100696.52;;;26.96;39.12
42067;BME280;27734;47.028;28.820;2023-05-19T10:22:58;100686.03;;;27.17;39.16
42067;BME280;27734;47.028;28.820;2023-05-19T10:25:33;100682.19;;;27.25;39.18
42067;BME280;27734;47.028;28.820;2023-05-19T10:28:08;100683.77;;;27.33;39.19
42067;BME280;27734;47.028;28.820;2023-05-19T10:30:45;100678.88;;;27.46;38.73
42067;BME280;27734;47.028;28.820;2023-05-19T10:33:19;100677.08;;;27.46;39.05
42067;BME280;27734;47.028;28.820;2023-05-19T10:36:01;100678.09;;;27.42;38.51
42067;BME280;27734;47.028;28.820;2023-05-19T10:38:46;100671.16;;;27.35;38.24
42067;BME280;27734;47.028;28.820;2023-05-19T10:41:23;100670.36;;;27.30;38.14
42067;BME280;27734;47.028;28.820;2023-05-19T10:44:05;100661.41;;;27.29;38.13
42067;BME280;27734;47.028;28.820;2023-05-19T10:46:44;100666.11;;;27.22;38.07
42067;BME280;27734;47.028;28.820;2023-05-19T10:49:20;100664.80;;;27.06;37.92
42067;BME280;27734;47.028;28.820;2023-05-19T10:51:55;100666.27;;;26.86;37.56
42067;BME280;27734;47.028;28.820;2023-05-19T10:54:49;100662.19;;;26.73;37.66
42067;BME280;27734;47.028;28.820;2023-05-19T10:57:28;100666.06;;;26.61;37.79
42067;BME280;27734;47.028;28.820;2023-05-19T11:00:25;100667.56;;;26.73;37.41
42067;BME280;27734;47.028;28.820;2023-05-19T11:03:18;100654.94;;;26.75;37.17
42067;BME280;27734;47.028;28.820;2023-05-19T11:06:17;100665.80;;;26.72;36.33
42067;BME280;27734;47.028;28.820;2023-05-19T11:08:56;100669.44;;;26.71;36.83
42067;BME280;27734;47.028;28.820;2023-05-19T11:11:44;100659.05;;;26.88;35.82
42067;BME280;27734;47.028;28.820;2023-05-19T11:14:24;100664.25;;;26.95;36.36
42067;BME280;27734;47.028;28.820;2023-05-19T11:16:59;100661.78;;;26.87;36.33
42067;BME280;27734;47.028;28.820;2023-05-19T11:19:30;100665.39;;;26.86;36.13
42067;BME280;27734;47.028;28.820;2023-05-19T11:22:12;100663.30;;;26.96;36.10
42067;BME280;27734;47.028;28.820;2023-05-19T11:24:48;100666.58;;;27.07;36.31
42067;BME280;27734;47.028;28.820;2023-05-19T11:27:21;100661.92;;;27.12;35.05
42067;BME280;27734;47.028;28.820;2023-05-19T11:29:57;100670.69;;;27.19;35.60
42067;BME280;27734;47.028;28.820;2023-05-19T11:32:29;100668.37;;;27.38;35.43
42067;BME280;27734;47.028;28.820;2023-05-19T11:35:15;100665.34;;;27.47;35.16
42067;BME280;27734;47.028;28.820;2023-05-19T11:37:59;100670.84;;;27.44;34.63
42067;BME280;27734;47.028;28.820;2023-05-19T11:40:30;100661.93;;;27.42;35.25
42067;BME280;27734;47.028;28.820;2023-05-19T11:43:01;100652.73;;;27.49;34.41
42067;BME280;27734;47.028;28.820;2023-05-19T11:45:32;100656.20;;;27.53;34.04
42067;BME280;27734;47.028;28.820;2023-05-19T11:48:17;100653.05;;;27.67;34.42
42067;BME280;27734;47.028;28.820;2023-05-19T11:50:55;100650.98;;;27.75;33.59
42067;BME280;27734;47.028;28.820;2023-05-19T11:53:30;100642.64;;;27.83;34.04
42067;BME280;27734;47.028;28.820;2023-05-19T11:56:04;100630.56;;;27.94;33.64
42067;BME280;27734;47.028;28.820;2023-05-19T12:01:32;100642.43;;;27.89;33.15
42067;BME280;27734;47.028;28.820;2023-05-19T12:04:07;100627.88;;;27.68;31.70
42067;BME280;27734;47.028;28.820;2023-05-19T12:06:41;100633.37;;;27.65;32.43
42067;BME280;27734;47.028;28.820;2023-05-19T12:09:13;100614.91;;;27.79;31.95
42067;BME280;27734;47.028;28.820;2023-05-19T12:11:58;100619.02;;;27.91;31.91
42067;BME280;27734;47.028;28.820;2023-05-19T12:14:33;100617.40;;;28.12;31.03
42067;BME280;27734;47.028;28.820;2023-05-19T12:24:28;100630.50;;;28.23;29.58
42067;BME280;27734;47.028;28.820;2023-05-19T12:30:39;100633.12;;;27.72;28.75
42067;BME280;27734;47.028;28.820;2023-05-19T12:42:54;100636.81;;;27.12;28.48
42067;BME280;27734;47.028;28.820;2023-05-19T12:45:42;100631.22;;;26.88;26.46
42067;BME280;27734;47.028;28.820;2023-05-19T12:48:26;100632.66;;;26.70;27.37
42067;BME280;27734;47.028;28.820;2023-05-19T12:54:22;100627.28;;;26.70;28.05
42067;BME280;27734;47.028;28.820;2023-05-19T12:56:53;100621.49;;;26.84;27.87
42067;BME280;27734;47.028;28.820;2023-05-19T12:59:46;100628.07;;;27.03;28.46
42067;BME280;27734;47.028;28.820;2023-05-19T13:02:19;100624.91;;;27.19;27.70
42067;BME280;27734;47.028;28.820;2023-05-19T13:05:33;100622.76;;;27.32;27.26
42067;BME280;27734;47.028;28.820;2023-05-19T13:08:19;100628.62;;;27.44;27.07
42067;BME280;27734;47.028;28.820;2023-05-19T13:11:09;100628.58;;;27.46;27.15
42067;BME280;27734;47.028;28.820;2023-05-19T13:13:51;100620.69;;;27.40;25.73
42067;BME280;27734;47.028;28.820;2023-05-19T13:16:53;100632.05;;;27.50;27.22
42067;BME280;27734;47.028;28.820;2023-05-19T13:19:52;100625.03;;;27.44;27.25
42067;BME280;27734;47.028;28.820;2023-05-19T13:22:23;100622.19;;;27.49;27.67
42067;BME280;27734;47.028;28.820;2023-05-19T13:24:56;100625.69;;;27.52;27.28
42067;BME280;27734;47.028;28.820;2023-05-19T13:27:41;100617.09;;;27.39;27.25
42067;BME280;27734;47.028;28.820;2023-05-19T13:30:15;100615.36;;;27.38;27.64
42067;BME280;27734;47.028;28.820;2023-05-19T13:32:52;100613.73;;;27.33;27.71
42067;BME280;27734;47.028;28.820;2023-05-19T13:35:31;100612.88;;;27.31;27.48
42067;BME280;27734;47.028;28.820;2023-05-19T13:38:08;100612.92;;;27.29;27.61
42067;BME280;27734;47.028;28.820;2023-05-19T13:40:40;100615.61;;;27.29;27.30
42067;BME280;27734;47.028;28.820;2023-05-19T13:43:10;100612.97;;;27.28;27.50